Time;durP1;ratioP1;P1;durP2;ratioP2;P2;SDS_P1;SDS_P2;PMS_P1;PMS_P2;Temp;Humidity;BMP_temperature;BMP_pressure;BME280_temperature;BME280_humidity;BME280_pressure;Samples;Min_cycle;Max_cycle;Signal;HPM_P1;HPM_P2
2022/11/15 08:43:43;;;;;;;6.35;5.53;;;;;;;;;;5317707;23;20116;-78
2022/11/15 09:22:10;;;;;;;6.45;5.65;;;;;;;;;;4976089;28;20043;-78
2022/11/15 09:24:36;;;;;;;7.93;6.18;;;;;;;;;;4977447;28;20045;-78
2022/11/15 09:27:02;;;;;;;6.20;5.57;;;;;;;;;;4980299;28;20060;-83
2022/11/15 09:29:28;;;;;;;7.30;6.60;;;;;;;;;;4996737;28;20034;-84
2022/11/15 09:31:53;;;;;;;7.10;5.90;;;;;;;;;;4996939;28;20027;-86
2022/11/15 09:34:19;;;;;;;6.65;5.72;;;;;;;;;;4996716;28;20030;-85
2022/11/15 09:36:44;;;;;;;7.93;5.90;;;;;;;;;;4978998;28;20169;-86
2022/11/15 09:39:10;;;;;;;7.50;6.03;;;;;;;;;;4996545;28;20146;-84
2022/11/15 09:42:16;;;;;;;6.35;5.25;;;;;;;;;;4979114;28;20050;-84
2022/11/15 09:44:55;;;;;;;6.95;5.22;;;;;;;;;;4996184;28;20054;-89
2022/11/15 09:47:42;;;;;;;5.85;5.25;;;;;;;;;;4996662;28;20377;-90
2022/11/15 09:50:17;;;;;;;8.07;6.25;;;;;;;;;;4996989;28;20105;-92
2022/11/15 09:52:44;;;;;;;8.32;6.50;;;;;;;;;;4997113;28;20030;-82
2022/11/15 09:55:14;;;;;;;7.60;6.72;;;;;;;;;;4996969;28;20122;-90
2022/11/15 09:58:03;;;;;;;7.90;6.68;;;;;;;;;;4997005;28;20022;-82
2022/11/15 10:00:43;;;;;;;10.18;6.47;;;;;;;;;;4996908;28;20034;-85
2022/11/15 10:03:27;;;;;;;7.65;6.25;;;;;;;;;;4996371;28;20076;-81
2022/11/15 10:05:57;;;;;;;7.30;6.43;;;;;;;;;;4995785;28;20551;-78
2022/11/15 10:08:34;;;;;;;9.80;6.10;;;;;;;;;;4995893;28;20038;-77
2022/11/15 10:11:11;;;;;;;9.00;6.32;;;;;;;;;;4978121;28;20386;-79
2022/11/15 10:13:42;;;;;;;6.85;5.93;;;;;;;;;;4996032;28;20488;-80
2022/11/15 10:16:52;;;;;;;6.57;5.65;;;;;;;;;;4996062;28;20041;-77
2022/11/15 10:19:29;;;;;;;6.68;6.07;;;;;;;;;;4934328;28;20491;-82
2022/11/15 10:22:13;;;;;;;7.80;5.72;;;;;;;;;;4994966;28;20097;-81
2022/11/15 10:24:44;;;;;;;6.50;5.43;;;;;;;;;;4994572;28;20469;-80
2022/11/15 10:27:14;;;;;;;5.93;4.88;;;;;;;;;;4994482;28;20042;-79
2022/11/15 10:29:45;;;;;;;7.78;5.22;;;;;;;;;;4994941;28;20034;-79
2022/11/15 10:32:12;;;;;;;6.22;5.63;;;;;;;;;;4994573;28;20440;-80
2022/11/15 10:34:37;;;;;;;5.60;5.05;;;;;;;;;;4994782;28;20022;-79
2022/11/15 10:37:03;;;;;;;5.00;4.30;;;;;;;;;;4994333;28;20073;-78
2022/11/15 10:39:29;;;;;;;5.18;4.65;;;;;;;;;;4994325;28;20092;-79
2022/11/15 10:41:55;;;;;;;5.00;4.50;;;;;;;;;;4994364;28;20073;-79
2022/11/15 10:44:26;;;;;;;5.38;4.82;;;;;;;;;;4994396;28;20030;-79
2022/11/15 10:46:54;;;;;;;6.75;5.40;;;;;;;;;;4994260;28;20381;-79
2022/11/15 10:49:25;;;;;;;5.63;5.03;;;;;;;;;;4994293;28;20105;-79
2022/11/15 10:51:55;;;;;;;5.15;4.65;;;;;;;;;;4994350;28;20101;-81
2022/11/15 10:54:27;;;;;;;;;;;;;;;;;;4994828;28;20026;-75
2022/11/15 10:56:55;;;;;;;6.05;4.90;;;;;;;;;;4994237;28;19914;-75
2022/11/15 10:59:33;;;;;;;4.45;4.05;;;;;;;;;;4994046;28;20177;-78
2022/11/15 11:01:59;;;;;;;4.97;4.47;;;;;;;;;;4994139;28;20018;-80
2022/11/15 11:04:25;;;;;;;6.45;5.20;;;;;;;;;;4994193;28;20042;-81
2022/11/15 11:06:59;;;;;;;7.15;5.97;;;;;;;;;;4993857;28;20077;-79
2022/11/15 11:09:36;;;;;;;7.70;6.43;;;;;;;;;;4993816;28;20453;-77
2022/11/15 11:12:04;;;;;;;6.03;5.43;;;;;;;;;;4994218;28;20041;-77
2022/11/15 11:14:32;;;;;;;11.80;8.73;;;;;;;;;;4999311;28;20022;-76
2022/11/15 11:17:10;;;;;;;16.33;11.88;;;;;;;;;;4993934;28;20037;-77
2022/11/15 11:20:01;;;;;;;8.18;6.20;;;;;;;;;;4993824;28;20462;-77
2022/11/15 11:23:22;;;;;;;6.22;5.40;;;;;;;;;;4946473;28;1153951;-77
2022/11/15 11:26:09;;;;;;;5.45;4.95;;;;;;;;;;4966693;28;20105;-77
2022/11/15 11:28:53;;;;;;;6.00;5.07;;;;;;;;;;4994245;28;20033;-78
2022/11/15 11:31:36;;;;;;;6.18;5.57;;;;;;;;;;4994311;28;20026;-77
2022/11/15 11:34:34;;;;;;;6.03;5.30;;;;;;;;;;4994336;28;20030;-78
2022/11/15 11:37:17;;;;;;;7.03;5.68;;;;;;;;;;4926221;28;20169;-78
2022/11/15 11:39:59;;;;;;;6.00;5.40;;;;;;;;;;4994365;28;20026;-79
2022/11/15 11:43:02;;;;;;;6.97;5.50;;;;;;;;;;4994318;28;20054;-79
2022/11/15 11:45:36;;;;;;;6.13;5.50;;;;;;;;;;4994227;28;20037;-76
2022/11/15 11:48:04;;;;;;;6.13;5.40;;;;;;;;;;4994366;28;20117;-77
2022/11/15 11:50:31;;;;;;;6.82;5.43;;;;;;;;;;4994394;28;20034;-77
2022/11/15 11:53:03;;;;;;;6.13;5.38;;;;;;;;;;4994353;28;20121;-77
2022/11/15 11:56:16;;;;;;;7.13;6.28;;;;;;;;;;4994101;28;20481;-79
2022/11/15 11:58:44;;;;;;;7.10;6.43;;;;;;;;;;4959147;28;20042;-77
2022/11/15 12:01:14;;;;;;;9.45;6.75;;;;;;;;;;4994065;28;20062;-77
2022/11/15 12:03:51;;;;;;;8.32;7.18;;;;;;;;;;4994163;28;20121;-77
2022/11/15 12:06:44;;;;;;;8.32;6.43;;;;;;;;;;4993879;28;20121;-77
2022/11/15 12:09:21;;;;;;;12.82;9.70;;;;;;;;;;4994233;28;20066;-77
2022/11/15 12:11:59;;;;;;;9.35;7.60;;;;;;;;;;4994222;28;20469;-77
2022/11/15 12:14:35;;;;;;;8.98;6.72;;;;;;;;;;4993884;28;20026;-77
2022/11/15 12:17:01;;;;;;;8.82;7.18;;;;;;;;;;4994051;28;20031;-77
2022/11/15 12:19:29;;;;;;;13.93;9.52;;;;;;;;;;4994106;28;20041;-77
2022/11/15 12:22:17;;;;;;;9.95;7.63;;;;;;;;;;4993806;28;20152;-77
2022/11/15 12:24:51;;;;;;;7.05;6.20;;;;;;;;;;4994026;28;20125;-77
2022/11/15 12:27:30;;;;;;;7.70;6.07;;;;;;;;;;4993865;28;20034;-77
2022/11/15 12:30:00;;;;;;;6.75;5.85;;;;;;;;;;4994246;28;20027;-78
2022/11/15 12:32:35;;;;;;;7.38;6.18;;;;;;;;;;4994905;28;20378;-77
2022/11/15 12:35:03;;;;;;;7.00;6.30;;;;;;;;;;4980283;28;20045;-77
2022/11/15 12:37:37;;;;;;;7.45;6.00;;;;;;;;;;4997778;28;20089;-77
2022/11/15 12:40:09;;;;;;;6.85;5.85;;;;;;;;;;4997436;28;20022;-77
2022/11/15 12:42:39;;;;;;;6.78;5.93;;;;;;;;;;4997597;28;20084;-77
2022/11/15 17:53:47;;;;;;;6.35;5.70;;;;;;;;;;4958933;28;20043;-77
2022/11/15 17:56:15;;;;;;;7.25;5.78;;;;;;;;;;4976848;28;20070;-77
2022/11/15 17:58:41;;;;;;;7.70;5.50;;;;;;;;;;4981147;28;20022;-78
2022/11/15 18:01:26;;;;;;;7.93;5.30;;;;;;;;;;4996545;28;20041;-76
2022/11/15 18:03:53;;;;;;;6.05;4.88;;;;;;;;;;4995320;28;20039;-77
2022/11/15 18:06:20;;;;;;;6.47;5.43;;;;;;;;;;4996207;28;20034;-77
2022/11/15 18:08:47;;;;;;;5.90;5.25;;;;;;;;;;4997161;28;20054;-78
2022/11/15 18:11:17;;;;;;;6.32;5.55;;;;;;;;;;4996104;28;20034;-78
2022/11/15 18:13:44;;;;;;;9.13;6.22;;;;;;;;;;4996005;28;20030;-77
2022/11/15 18:16:13;;;;;;;6.70;5.47;;;;;;;;;;4995871;28;20065;-78
2022/11/15 18:18:38;;;;;;;6.40;5.80;;;;;;;;;;4995762;28;20033;-78
2022/11/15 18:21:06;;;;;;;6.80;6.10;;;;;;;;;;4995971;28;20038;-78
2022/11/15 18:23:33;;;;;;;6.60;5.90;;;;;;;;;;4996110;28;20032;-78
2022/11/15 18:26:03;;;;;;;6.45;5.30;;;;;;;;;;4978581;28;20027;-77
2022/11/15 18:28:31;;;;;;;7.90;6.13;;;;;;;;;;4995742;28;20027;-76
2022/11/15 18:30:57;;;;;;;6.55;5.85;;;;;;;;;;4995281;28;20110;-78
2022/11/15 18:33:23;;;;;;;6.60;6.00;;;;;;;;;;4995700;28;20030;-80
2022/11/15 18:35:48;;;;;;;8.43;6.22;;;;;;;;;;4995542;28;20053;-79
2022/11/15 18:38:14;;;;;;;6.43;5.82;;;;;;;;;;4995431;28;20031;-84
2022/11/15 18:40:39;;;;;;;6.80;6.10;;;;;;;;;;4995535;28;20389;-82
2022/11/15 18:43:05;;;;;;;6.05;5.53;;;;;;;;;;4978136;28;20473;-80
2022/11/15 18:45:33;;;;;;;6.88;6.18;;;;;;;;;;4995379;28;20116;-79
2022/11/15 18:47:59;;;;;;;7.22;6.10;;;;;;;;;;4995204;28;20491;-78
2022/11/15 18:50:24;;;;;;;7.82;6.53;;;;;;;;;;4995302;28;20030;-81
2022/11/15 18:52:50;;;;;;;9.60;7.65;;;;;;;;;;4995362;28;20517;-79
2022/11/15 18:55:15;;;;;;;21.90;15.07;;;;;;;;;;4995197;28;20113;-78
2022/11/15 18:57:40;;;;;;;18.73;11.00;;;;;;;;;;4995337;28;20057;-79
2022/11/15 19:00:07;;;;;;;17.85;11.95;;;;;;;;;;4995008;28;20057;-82
2022/11/15 19:02:33;;;;;;;12.55;9.38;;;;;;;;;;4995285;28;20018;-81
2022/11/15 19:04:58;;;;;;;12.32;9.07;;;;;;;;;;4994933;28;20331;-80
2022/11/15 19:07:24;;;;;;;17.67;10.18;;;;;;;;;;4995074;28;20084;-80
2022/11/15 19:09:49;;;;;;;9.02;7.82;;;;;;;;;;4994820;28;20018;-79
2022/11/15 19:12:15;;;;;;;9.05;7.07;;;;;;;;;;4994966;28;20034;-78
2022/11/15 19:14:40;;;;;;;10.95;8.10;;;;;;;;;;4994884;28;20485;-79
2022/11/15 19:17:06;;;;;;;9.63;8.63;;;;;;;;;;4994986;28;20422;-78
2022/11/15 19:19:31;;;;;;;9.88;8.57;;;;;;;;;;4994814;28;20034;-79
2022/11/15 19:21:57;;;;;;;10.15;9.05;;;;;;;;;;4994571;28;20057;-79
2022/11/15 19:24:25;;;;;;;9.68;8.75;;;;;;;;;;4986900;28;20050;-79
2022/11/15 19:26:50;;;;;;;10.80;9.07;;;;;;;;;;4994596;28;20536;-78
2022/11/15 19:29:17;;;;;;;13.50;10.15;;;;;;;;;;4994493;28;20169;-78
2022/11/15 19:31:42;;;;;;;12.30;11.00;;;;;;;;;;4994301;28;20030;-78
2022/11/15 19:34:08;;;;;;;11.57;10.38;;;;;;;;;;4994450;28;20385;-77
2022/11/15 19:36:39;;;;;;;11.00;9.48;;;;;;;;;;4994468;28;20037;-77
2022/11/15 19:39:08;;;;;;;9.60;8.52;;;;;;;;;;4994382;28;20049;-77
2022/11/15 19:41:40;;;;;;;9.50;7.47;;;;;;;;;;4994009;28;20105;-79
2022/11/15 19:44:07;;;;;;;11.00;9.48;;;;;;;;;;4994206;28;20026;-78
2022/11/15 19:46:33;;;;;;;8.88;7.63;;;;;;;;;;4994739;28;20030;-77
2022/11/15 19:48:58;;;;;;;8.40;7.50;;;;;;;;;;4994326;28;20480;-79
2022/11/15 19:51:26;;;;;;;8.77;7.40;;;;;;;;;;4994462;28;20031;-78
2022/11/15 19:53:53;;;;;;;7.60;6.80;;;;;;;;;;4994211;28;20047;-78
2022/11/15 19:56:20;;;;;;;8.88;7.88;;;;;;;;;;4994307;28;20511;-78
2022/11/15 19:58:48;;;;;;;10.32;8.25;;;;;;;;;;4994057;28;20125;-78
2022/11/15 20:01:22;;;;;;;10.30;9.18;;;;;;;;;;4994556;28;20030;-78
2022/11/15 20:03:49;;;;;;;9.98;8.57;;;;;;;;;;4994314;28;20022;-78
2022/11/15 20:06:17;;;;;;;8.57;6.57;;;;;;;;;;4994290;28;20029;-79
2022/11/15 20:08:44;;;;;;;6.78;6.07;;;;;;;;;;4993915;28;20026;-79
2022/11/15 20:11:11;;;;;;;6.97;6.22;;;;;;;;;;4994300;28;20089;-79
2022/11/15 20:13:36;;;;;;;7.38;6.65;;;;;;;;;;4994510;28;20018;-79
2022/11/15 20:16:02;;;;;;;9.20;8.18;;;;;;;;;;4994148;28;20172;-79
2022/11/15 20:18:28;;;;;;;11.23;10.02;;;;;;;;;;4994071;28;20100;-79
2022/11/15 20:20:58;;;;;;;11.07;9.95;;;;;;;;;;4994069;28;20042;-79
2022/11/15 20:23:26;;;;;;;9.25;7.80;;;;;;;;;;4994058;28;20026;-79
2022/11/15 20:25:53;;;;;;;9.63;8.02;;;;;;;;;;4993833;28;20113;-79
2022/11/15 20:28:24;;;;;;;11.57;8.02;;;;;;;;;;4993916;28;20109;-79
2022/11/15 20:30:55;;;;;;;8.50;7.60;;;;;;;;;;4994063;28;20128;-79
2022/11/15 20:33:21;;;;;;;27.50;18.67;;;;;;;;;;4993993;28;20058;-79
2022/11/15 20:35:47;;;;;;;26.50;14.48;;;;;;;;;;4993770;28;20050;-78
2022/11/15 20:38:13;;;;;;;13.80;9.65;;;;;;;;;;4993846;28;20136;-79
2022/11/15 20:40:38;;;;;;;9.43;7.35;;;;;;;;;;4994219;28;20038;-78
2022/11/15 20:43:05;;;;;;;10.45;7.55;;;;;;;;;;4993859;28;20069;-79
2022/11/15 20:45:31;;;;;;;10.27;7.95;;;;;;;;;;4993964;28;20057;-79
2022/11/15 20:47:57;;;;;;;11.20;8.57;;;;;;;;;;4993877;28;20521;-79
2022/11/15 20:50:24;;;;;;;13.00;9.65;;;;;;;;;;4985896;28;20038;-78
2022/11/15 20:52:49;;;;;;;12.57;9.65;;;;;;;;;;4993403;28;20490;-79
2022/11/15 20:55:15;;;;;;;13.45;10.90;;;;;;;;;;4997498;28;20022;-78
2022/11/15 20:57:40;;;;;;;13.32;10.93;;;;;;;;;;4997453;28;20023;-80
2022/11/15 21:00:06;;;;;;;12.30;11.00;;;;;;;;;;4997173;28;20393;-79
2022/11/15 21:02:32;;;;;;;12.82;10.82;;;;;;;;;;4997302;28;20027;-78
2022/11/15 21:04:58;;;;;;;12.52;9.63;;;;;;;;;;4997277;28;20488;-79
2022/11/15 21:07:24;;;;;;;11.05;9.63;;;;;;;;;;4989419;28;20149;-79
2022/11/15 21:12:33;;;;;;;13.00;10.30;;;;;;;;;;4997436;28;20397;-78
2022/11/15 21:14:59;;;;;;;11.88;9.60;;;;;;;;;;4988692;28;20027;-78
2022/11/15 21:17:24;;;;;;;12.75;10.10;;;;;;;;;;4987600;28;20030;-78
2022/11/15 21:19:50;;;;;;;11.30;9.77;;;;;;;;;;4986984;28;20121;-78
2022/11/15 21:22:15;;;;;;;13.73;10.70;;;;;;;;;;4986008;28;20089;-78
2022/11/15 21:24:41;;;;;;;11.40;9.98;;;;;;;;;;4988089;28;20022;-78
2022/11/15 21:27:07;;;;;;;12.13;9.80;;;;;;;;;;4986569;28;20018;-78
2022/11/15 21:29:39;;;;;;;13.82;9.82;;;;;;;;;;4986295;28;20385;-78
2022/11/15 21:32:07;;;;;;;10.88;9.27;;;;;;;;;;4986456;28;20065;-79
2022/11/15 21:34:32;;;;;;;10.35;9.10;;;;;;;;;;4986278;28;20022;-78
2022/11/15 21:36:58;;;;;;;12.15;9.73;;;;;;;;;;4987390;28;20429;-78
2022/11/15 21:39:23;;;;;;;11.60;9.13;;;;;;;;;;4991396;28;20438;-78
2022/11/15 21:41:49;;;;;;;10.00;8.43;;;;;;;;;;4996917;28;20026;-79
2022/11/15 21:44:14;;;;;;;15.15;10.80;;;;;;;;;;4996942;28;20022;-79
2022/11/15 21:46:40;;;;;;;11.80;10.60;;;;;;;;;;4996451;28;20029;-79
2022/11/15 21:49:06;;;;;;;11.73;10.25;;;;;;;;;;4996332;28;20041;-78
2022/11/15 21:51:32;;;;;;;14.18;10.82;;;;;;;;;;4996535;28;20046;-78
2022/11/15 21:53:58;;;;;;;15.10;10.05;;;;;;;;;;4996231;28;20128;-78
2022/11/15 21:56:25;;;;;;;11.70;9.00;;;;;;;;;;4996351;28;20058;-78
2022/11/15 21:58:52;;;;;;;13.68;10.80;;;;;;;;;;4996586;28;20388;-79
2022/11/15 22:04:02;;;;;;;12.77;9.50;;;;;;;;;;4996191;28;20520;-78
2022/11/15 22:06:27;;;;;;;10.80;9.05;;;;;;;;;;4995634;28;20026;-79
2022/11/15 22:08:53;;;;;;;12.50;9.60;;;;;;;;;;4996319;28;20038;-79
2022/11/15 22:11:18;;;;;;;15.05;10.52;;;;;;;;;;4996130;28;20420;-78
2022/11/15 22:13:44;;;;;;;11.63;9.93;;;;;;;;;;4996058;28;20093;-78
2022/11/15 22:16:10;;;;;;;10.63;9.18;;;;;;;;;;4995913;28;20085;-78
2022/11/15 22:18:35;;;;;;;13.52;9.73;;;;;;;;;;4995830;28;20391;-79
2022/11/15 22:21:09;;;;;;;11.10;9.27;;;;;;;;;;4995965;28;20026;-79
2022/11/15 22:23:36;;;;;;;11.18;9.77;;;;;;;;;;4995830;28;20386;-79
2022/11/15 22:26:02;;;;;;;11.18;9.82;;;;;;;;;;4995906;28;20031;-79
2022/11/15 22:28:29;;;;;;;11.48;9.27;;;;;;;;;;4995711;28;20604;-79
2022/11/15 22:30:55;;;;;;;13.15;9.18;;;;;;;;;;4995649;28;20026;-79
2022/11/15 22:33:23;;;;;;;12.95;8.60;;;;;;;;;;4995592;28;20030;-79
2022/11/15 22:35:48;;;;;;;12.30;8.82;;;;;;;;;;4995619;28;20035;-80
2022/11/15 22:38:14;;;;;;;12.02;9.05;;;;;;;;;;4995701;28;20026;-79
